Raahe Pattijoki Airport


Codes: EFRH/
Name: Raahe Pattijoki Airport
City:
Country: Finland
Elevation: 118 ft.
Wikipedia:

Photos at Raahe Pattijoki Airport


   Photos courtesy of SpottingLog. You can add your own sightings and photos by signing up for a free trial today.



No photos found.

Weather at Raahe Pattijoki Airport


Time (UTC)DescriptionTempratureWindCloud coverageVisibilityPressureHumidity
16-Jun-2024 03:00Few Clouds9°C7 mph, S16%10000m1015hPa89%
16-Jun-2024 06:00Scattered Clouds13°C7 mph, SW31%10000m1016hPa73%
16-Jun-2024 09:00Overcast Clouds17°C4 mph, W92%10000m1016hPa54%
16-Jun-2024 12:00Overcast Clouds15°C2 mph, N96%10000m1016hPa64%
16-Jun-2024 15:00Overcast Clouds16°C4 mph, NE92%10000m1015hPa63%
16-Jun-2024 18:00Overcast Clouds15°C4 mph, SE96%10000m1016hPa70%
16-Jun-2024 21:00Light Rain13°C7 mph, S100%10000m1017hPa85%
17-Jun-2024 00:00Light Rain12°C7 mph, SE100%9545m1017hPa97%
17-Jun-2024 03:00Moderate Rain12°C7 mph, SE100%10000m1017hPa97%
17-Jun-2024 06:00Light Rain12°C7 mph, SE100%10000m1017hPa97%
17-Jun-2024 09:00Light Rain14°C4 mph, SE100%10000m1017hPa92%
17-Jun-2024 12:00Overcast Clouds17°C4 mph, N100%10000m1016hPa76%
17-Jun-2024 15:00Light Rain14°C9 mph, NE100%10000m1014hPa89%
17-Jun-2024 18:00Light Rain15°C2 mph, NW100%10000m1013hPa87%
17-Jun-2024 21:00Overcast Clouds14°C2 mph, E100%10000m1013hPa88%
18-Jun-2024 00:00Light Rain13°C4 mph, N100%10000m1011hPa91%
18-Jun-2024 03:00Light Rain13°C4 mph, E100%10000m1010hPa98%
18-Jun-2024 06:00Moderate Rain14°C7 mph, SE100%9402m1008hPa99%
18-Jun-2024 09:00Light Rain15°C7 mph, SW100%6903m1008hPa95%
18-Jun-2024 12:00Light Rain13°C9 mph, SW100%7704m1007hPa91%
18-Jun-2024 15:00Broken Clouds15°C4 mph, W63%7653m1006hPa76%
18-Jun-2024 18:00Scattered Clouds13°C2 mph, W42%7990m1005hPa82%
18-Jun-2024 21:00Few Clouds10°C2 mph, SE21%10000m1004hPa91%
19-Jun-2024 00:00Scattered Clouds10°C4 mph, SW50%10000m1002hPa88%
19-Jun-2024 03:00Overcast Clouds12°C7 mph, SW100%4740m1001hPa89%
19-Jun-2024 06:00Overcast Clouds14°C9 mph, SW98%8636m1000hPa77%
19-Jun-2024 09:00Overcast Clouds15°C11 mph, SW99%7088m999hPa70%
19-Jun-2024 12:00Overcast Clouds15°C11 mph, SW100%7018m998hPa70%
19-Jun-2024 15:00Overcast Clouds15°C11 mph, SW91%7088m998hPa70%
19-Jun-2024 18:00Broken Clouds13°C11 mph, SW58%7731m997hPa81%
19-Jun-2024 21:00Scattered Clouds10°C7 mph, SW37%10000m997hPa95%
20-Jun-2024 00:00Scattered Clouds10°C7 mph, W35%10000m997hPa98%
20-Jun-2024 03:00Broken Clouds11°C7 mph, SW69%10000m996hPa93%
20-Jun-2024 06:00Broken Clouds11°C9 mph, SW77%10000m996hPa88%
20-Jun-2024 09:00Overcast Clouds12°C13 mph, SW98%10000m996hPa58%
20-Jun-2024 12:00Overcast Clouds12°C16 mph, SW99%10000m996hPa57%
20-Jun-2024 15:00Overcast Clouds12°C11 mph, SW100%10000m996hPa65%
20-Jun-2024 18:00Overcast Clouds11°C11 mph, SW100%10000m995hPa79%
20-Jun-2024 21:00Overcast Clouds10°C9 mph, SW96%10000m994hPa80%
21-Jun-2024 00:00Broken Clouds7°C4 mph, SE54%10000m994hPa93%